Brandon, SD

6:39 AM CST on February 06, 2016 (GMT -0600)
IEM | | Change Station
CLOSE
Current Station
Personal Weather Station
Location: Brandon, SD
Elevation: 1368 ft
Nearby Weather Stations

Elev 1368 ft 43.60 °N, 96.58 °W | Updated 22 minutes ago

Overcast
Overcast
18 °F
Feels Like 10 °F
N
6
Wind Variable Wind from SSW
Gusts 0.0 mph

Today
High -- | Low -- °F
--% Chance of Precip.
Yesterday
High -- | Low -- °F
Precip. -- in
Pressure 30.20 in
Visibility 10.0 miles
Clouds Scattered Clouds 16000 ft
Windchill 10 °F
Dew Point 18 °F
Humidity 100%
Rainfall in
Snow Depth Not available.
7:37 AM 5:43 PM
Waning Crescent, 6% visible
METAR KFSD 061156Z 21004KT 10SM SCT160 M07/M08 A3013 RMK AO2 SLP226 I1000 I6010 T10671083 11050 21067 56012
Pressure 30.20 in
Visibility 10.0 miles
Clouds Scattered Clouds 16000 ft
Windchill 10 °F
Dew Point 18 °F
Humidity 100%
Rainfall in
Snow Depth Not available.
7:37 AM 5:43 PM
Waning Crescent, 6% visible
METAR KFSD 061156Z 21004KT 10SM SCT160 M07/M08 A3013 RMK AO2 SLP226 I1000 I6010 T10671083 11050 21067 56012

10-Day Weather Forecast

Almanac

Astronomy

Feb. 06, 2016 Rise Set
Actual Time
Civil Twilight
Nautical Twilight
Astronomical Twilight
Moon
Length of Visible Light
Length of Day
Tomorrow will be .
, % of the Moon is Illuminated

Today's Extremes

State Highs State Lows

Community

WunderPhotos

Upload Photos

1,890,950 photos uploaded!

WunderBlog® & News

Nearby

Air Quality

  Air Quality AQ Index Pollutant
Not available.

Snow Depth

Station Depth Elevation

Earthquake Activity

City Distance Mag. Time & Date
Minimum magnitude displayed is 2.5.

Coastal Water Temperatures

Place Temperature

Stations

Nearby Weather Stations

Station Location Temp. Windchill Dew Point Humidity Wind Precip. Elev Updated Type
                   

Watches & Warnings

There are currently no watches in effect.